Weather at Hiller Airfield [CLOSED]

Public forecast

Using degrees Fahrenheit for public forecast. Weather courtesy of forecast.io.

Closest aviation weather report (METAR) to Hiller Airfield

Closest report is Palo Alto Airport of Santa Clara County, 1.9 nm (3.5 km) ESE.

2024/05/30 17:47 (retrieved 24 minutes ago)

KPAO 301747Z 36008KT 10SM SKC 20/14 A2999

Closest aviation forecast (TAF) to Hiller Airfield

Closest forecast is Norman Y. Mineta San Jose International Airport, 12.5 nm (23.2 km) ESE.

2024/05/30 18:22 (retrieved 0 seconds ago)

TAF KSJC 301720Z 3018/3118 VRB04KT P6SM SKC FM302000 32013KT P6SM SKC FM310500 VRB05KT P6SM SKC